createdAt,value
2019-04-25T05:35:19.965Z,19.50
2019-04-25T05:37:48.226Z,20.70
2019-04-25T05:40:17.184Z,20.70
2019-04-25T05:42:50.277Z,20.70
2019-04-25T05:45:19.956Z,20.70
2019-04-25T05:47:48.111Z,20.60
2019-04-25T05:50:17.794Z,20.60
2019-04-25T05:52:46.378Z,20.60
2019-04-25T05:55:17.311Z,20.60
2019-04-25T05:57:49.514Z,20.60
2019-04-25T06:00:13.429Z,20.60
2019-04-25T06:02:41.786Z,20.60
2019-04-25T06:05:10.395Z,20.60
2019-04-25T06:07:39.001Z,20.60
2019-04-25T06:11:14.947Z,20.60
2019-04-25T06:13:49.050Z,20.70
2019-04-25T06:16:22.071Z,20.70
2019-04-25T06:18:55.134Z,20.60
2019-04-25T06:21:24.554Z,20.60
2019-04-25T06:24:13.152Z,20.70
2019-04-25T06:26:45.404Z,20.70
2019-04-25T06:29:15.231Z,20.70
2019-04-25T06:31:44.320Z,20.70
2019-04-25T06:34:14.071Z,20.60
2019-04-25T06:36:41.955Z,20.70
2019-04-25T06:39:11.130Z,20.70
2019-04-25T06:41:39.890Z,20.70
2019-04-25T06:44:09.148Z,20.70
2019-04-25T06:46:46.898Z,20.60
2019-04-25T06:49:26.452Z,20.60
2019-04-25T06:51:54.889Z,20.70
2019-04-25T06:54:25.438Z,20.60
2019-04-25T06:56:53.589Z,20.60
2019-04-25T06:59:23.037Z,20.60
2019-04-25T07:01:50.829Z,20.70
2019-04-25T07:04:19.617Z,20.70
2019-04-25T07:06:49.518Z,20.60
2019-04-25T07:09:17.484Z,20.70
2019-04-25T07:11:48.211Z,20.70
2019-04-25T07:14:15.306Z,20.70
2019-04-25T07:16:44.394Z,20.70
2019-04-25T07:19:14.689Z,20.70
2019-04-25T07:21:41.882Z,20.70
2019-04-25T07:24:10.728Z,20.60
2019-04-25T07:26:46.674Z,20.70
2019-04-25T07:29:21.220Z,20.70
2019-04-25T07:31:55.250Z,20.70
2019-04-25T07:34:26.209Z,20.70
2019-04-25T07:36:54.756Z,20.70
2019-04-25T07:39:25.510Z,20.70
2019-04-25T07:41:54.068Z,20.70
2019-04-25T07:44:33.793Z,20.70
2019-04-25T07:46:50.022Z,20.70
2019-04-25T07:49:18.685Z,20.70
2019-04-25T07:51:47.514Z,20.70
2019-04-25T07:54:16.004Z,20.70
2019-04-25T07:56:45.318Z,20.70
2019-04-25T07:59:14.399Z,20.70
2019-04-25T08:01:43.635Z,20.70
2019-04-25T08:04:13.522Z,20.80
2019-04-25T08:06:40.745Z,20.80
2019-04-25T08:09:09.714Z,20.80
2019-04-25T08:11:38.507Z,20.80
2019-04-25T08:14:19.705Z,20.80
2019-04-25T08:16:50.140Z,20.80
2019-04-25T08:21:47.317Z,20.80
2019-04-25T08:24:16.343Z,20.80
2019-04-25T08:26:44.814Z,20.80
2019-04-25T08:29:13.933Z,20.90
2019-04-25T08:31:43.968Z,20.90
2019-04-25T08:34:11.878Z,20.90
2019-04-25T08:36:40.353Z,20.90
2019-04-25T08:39:09.695Z,20.90
2019-04-25T08:41:38.831Z,21.00
2019-04-25T08:44:07.693Z,21.00
2019-04-25T08:46:37.258Z,21.00
2019-04-25T08:50:09.057Z,21.00
2019-04-25T08:52:37.778Z,21.00
2019-04-25T08:55:10.254Z,21.00
2019-04-25T08:57:44.255Z,21.00
2019-04-25T09:00:20.099Z,21.10
2019-04-25T09:02:52.374Z,21.10
2019-04-25T09:05:24.418Z,21.10
2019-04-25T09:07:54.363Z,21.10
2019-04-25T09:10:23.769Z,21.20
2019-04-25T09:12:51.201Z,21.20
2019-04-25T09:15:19.929Z,21.20
2019-04-25T09:17:48.793Z,21.20
2019-04-25T09:20:17.282Z,21.30
2019-04-25T09:22:46.294Z,21.30
2019-04-25T09:25:14.770Z,21.30
2019-04-25T09:27:43.823Z,21.30
2019-04-25T09:30:11.771Z,21.30
2019-04-25T09:32:40.501Z,21.30
2019-04-25T09:35:08.993Z,21.40
2019-04-25T09:37:38.735Z,21.40
2019-04-25T09:40:08.849Z,21.40
2019-04-25T09:42:39.530Z,21.40
2019-04-25T09:45:13.631Z,21.40
2019-04-25T09:47:43.541Z,21.50
2019-04-25T09:50:14.481Z,21.50
2019-04-25T09:52:44.565Z,21.50
2019-04-25T09:55:16.948Z,21.50
2019-04-25T09:57:50.682Z,21.60
2019-04-25T10:00:23.658Z,21.60
2019-04-25T10:02:55.289Z,21.50
2019-04-25T10:05:20.938Z,21.60
2019-04-25T10:07:49.730Z,21.60
2019-04-25T10:10:18.893Z,21.60
2019-04-25T10:12:47.850Z,21.60
2019-04-25T10:15:55.239Z,21.60
2019-04-25T10:18:23.771Z,21.60
2019-04-25T10:20:54.124Z,21.60
2019-04-25T10:23:21.613Z,21.60
2019-04-25T10:25:50.492Z,21.60
2019-04-25T10:28:18.990Z,21.60
2019-04-25T10:30:47.701Z,21.70
2019-04-25T10:33:16.616Z,21.70
2019-04-25T10:35:51.923Z,21.70
2019-04-25T10:38:14.422Z,21.70
2019-04-25T10:40:45.150Z,21.70
2019-04-25T10:43:13.820Z,21.70
2019-04-25T10:45:42.282Z,21.70
2019-04-25T10:48:09.418Z,21.70
2019-04-25T10:50:40.007Z,21.70
2019-04-25T10:53:06.724Z,21.70
2019-04-25T10:55:35.291Z,21.70
2019-04-25T10:58:03.948Z,21.80
2019-04-25T11:00:35.885Z,21.80
2019-04-25T11:03:09.554Z,21.80
2019-04-25T11:05:38.096Z,21.80
2019-04-25T11:08:06.586Z,21.80
2019-04-25T11:10:35.111Z,21.80
2019-04-25T11:13:04.072Z,21.80
2019-04-25T11:15:33.964Z,21.80
2019-04-25T11:18:01.494Z,21.80
2019-04-25T11:20:30.671Z,21.80
2019-04-25T11:22:59.421Z,21.80
2019-04-25T11:25:27.907Z,21.80
2019-04-25T11:27:56.393Z,21.80
2019-04-25T11:30:25.195Z,21.80
2019-04-25T11:32:54.732Z,21.80
2019-04-25T11:35:24.144Z,21.90
2019-04-25T11:37:52.563Z,21.90
2019-04-25T11:40:25.579Z,21.90
2019-04-25T11:42:54.583Z,21.90
2019-04-25T11:45:22.862Z,21.90
2019-04-25T11:47:51.951Z,21.90
2019-04-25T11:50:20.889Z,21.90
2019-04-25T11:52:50.491Z,21.90
2019-04-25T11:55:18.239Z,22.00
2019-04-25T11:57:50.085Z,22.00
2019-04-25T12:00:22.222Z,22.00
2019-04-25T12:02:45.420Z,22.00
2019-04-25T12:05:15.125Z,22.00
2019-04-25T12:07:44.509Z,22.00
2019-04-25T12:10:11.833Z,22.00
2019-04-25T12:12:40.943Z,22.00
2019-04-25T12:15:10.921Z,22.00
2019-04-25T12:17:39.396Z,22.00
2019-04-25T12:20:08.153Z,22.00
2019-04-25T12:22:37.042Z,22.00
2019-04-25T12:25:05.812Z,22.00
2019-04-25T12:27:34.415Z,22.00
2019-04-25T12:30:05.381Z,22.00
2019-04-25T12:32:35.019Z,22.00
2019-04-25T12:35:00.951Z,22.00
2019-04-25T12:37:30.006Z,22.00
2019-04-25T12:39:59.806Z,22.00
2019-04-25T12:42:30.181Z,22.00
2019-04-25T12:45:10.966Z,22.00
2019-04-25T12:47:43.010Z,21.90
2019-04-25T12:50:14.370Z,21.90
2019-04-25T12:52:43.309Z,21.90
2019-04-25T12:55:11.220Z,21.90
2019-04-25T12:57:39.718Z,21.90
2019-04-25T13:00:08.510Z,21.90
2019-04-25T13:02:37.339Z,21.90
2019-04-25T13:05:07.011Z,21.90
2019-04-25T13:07:34.682Z,21.90
2019-04-25T13:10:03.673Z,21.90
2019-04-25T13:12:33.244Z,21.90
2019-04-25T13:15:01.333Z,21.80
2019-04-25T13:17:29.818Z,21.80
2019-04-25T13:19:58.346Z,21.80
2019-04-25T13:22:27.051Z,21.80
2019-04-25T13:24:56.335Z,21.80
2019-04-25T13:27:30.206Z,21.80
2019-04-25T13:30:05.246Z,21.80
2019-04-25T13:32:36.975Z,21.80
2019-04-25T13:35:09.888Z,21.80
2019-04-25T13:40:08.463Z,21.80
2019-04-25T13:42:37.295Z,21.80
2019-04-25T13:45:06.041Z,21.80
2019-04-25T13:47:34.767Z,21.80
2019-04-25T13:50:04.580Z,21.70
2019-04-25T13:52:35.750Z,21.80
2019-04-25T13:55:03.680Z,21.70
2019-04-25T13:57:31.171Z,21.70
2019-04-25T14:00:00.177Z,21.70
2019-04-25T14:02:29.257Z,21.70
2019-04-25T14:04:58.918Z,21.70
2019-04-25T14:07:29.577Z,21.70
2019-04-25T14:09:58.399Z,21.70
2019-04-25T14:12:28.772Z,21.70
2019-04-25T14:14:55.390Z,21.70
2019-04-25T14:18:00.966Z,21.70
2019-04-25T14:20:32.715Z,21.70
2019-04-25T14:23:03.443Z,21.70
2019-04-25T14:25:33.156Z,21.60
2019-04-25T14:30:32.586Z,21.60
2019-04-25T14:33:00.854Z,21.60
2019-04-25T14:35:29.606Z,21.60
2019-04-25T14:37:58.108Z,21.60
2019-04-25T14:40:27.057Z,21.60
2019-04-25T14:42:56.613Z,21.60
2019-04-25T14:45:25.094Z,21.60
2019-04-25T14:47:54.239Z,21.60
2019-04-25T14:50:22.945Z,21.60
2019-04-25T14:52:51.704Z,21.60
2019-04-25T14:57:53.547Z,21.60
2019-04-25T15:00:26.586Z,21.70
2019-04-25T15:02:57.520Z,21.60
2019-04-25T15:05:26.026Z,21.60
2019-04-25T15:07:54.536Z,21.60
2019-04-25T15:10:23.509Z,21.60
2019-04-25T15:12:52.021Z,21.60
2019-04-25T15:15:20.576Z,21.60
2019-04-25T15:17:49.086Z,21.60
2019-04-25T15:20:18.751Z,21.60
2019-04-25T15:22:47.246Z,21.60
2019-04-25T15:25:16.109Z,21.60
2019-04-25T15:27:44.988Z,21.60
2019-04-25T15:30:16.799Z,21.60
2019-04-25T15:32:45.296Z,21.60
2019-04-25T15:35:14.246Z,21.60
2019-04-25T15:37:47.262Z,21.60
2019-04-25T15:40:24.111Z,21.60
2019-04-25T15:42:57.352Z,21.60
2019-04-25T15:47:59.901Z,21.60
2019-04-25T15:50:29.820Z,21.60
2019-04-25T15:52:57.913Z,21.50
2019-04-25T15:55:27.373Z,21.50
2019-04-25T15:57:55.500Z,21.50
2019-04-25T16:00:30.818Z,21.50
2019-04-25T16:02:59.300Z,21.50
2019-04-25T16:05:27.823Z,21.50
2019-04-25T16:07:56.451Z,21.50
2019-04-25T16:10:24.973Z,21.50
2019-04-25T16:12:53.980Z,21.50
2019-04-25T16:15:22.478Z,21.50
2019-04-25T16:17:51.265Z,21.50
2019-04-25T16:20:21.213Z,21.50
2019-04-25T16:22:50.782Z,21.50
2019-04-25T16:25:19.506Z,21.50
2019-04-25T16:27:48.432Z,21.50
2019-04-25T16:30:16.954Z,21.50
2019-04-25T16:32:45.776Z,21.50
2019-04-25T16:35:14.551Z,21.50
2019-04-25T16:37:43.405Z,21.50
2019-04-25T16:40:11.931Z,21.40
2019-04-25T16:42:41.713Z,21.40
2019-04-25T16:45:09.552Z,21.40
2019-04-25T16:47:38.389Z,21.40
2019-04-25T16:50:07.148Z,21.40
2019-04-25T16:52:36.533Z,21.40
2019-04-25T16:55:05.806Z,21.40
2019-04-25T16:57:34.848Z,21.40
2019-04-25T17:00:03.410Z,21.40
2019-04-25T17:02:38.283Z,21.40
2019-04-25T17:05:02.684Z,21.40
2019-04-25T17:07:31.866Z,21.40
2019-04-25T17:10:01.278Z,21.40
2019-04-25T17:12:31.155Z,21.40
2019-04-25T17:15:10.259Z,21.40
2019-04-25T17:17:43.361Z,21.40
2019-04-25T17:20:18.625Z,21.40
2019-04-25T17:22:47.110Z,21.40
2019-04-25T17:25:16.005Z,21.40
2019-04-25T17:27:44.821Z,21.40
2019-04-25T17:30:13.361Z,21.40
2019-04-25T17:32:52.895Z,21.40
2019-04-25T17:35:21.097Z,21.40
2019-04-25T17:37:53.398Z,21.40
2019-04-25T17:40:25.106Z,21.40
2019-04-25T17:42:55.143Z,21.40
2019-04-25T17:45:26.358Z,21.40
2019-04-25T17:47:55.497Z,21.40
2019-04-25T17:50:24.066Z,21.40
2019-04-25T17:52:52.822Z,21.30
2019-04-25T17:55:21.386Z,21.30
2019-04-25T17:57:50.559Z,21.30
2019-04-25T18:00:23.350Z,21.30
2019-04-25T18:02:58.866Z,21.30
2019-04-25T18:05:22.914Z,21.30
2019-04-25T18:07:51.413Z,21.30
2019-04-25T18:10:19.911Z,21.30
2019-04-25T18:12:48.687Z,21.30
2019-04-25T18:15:22.280Z,21.30
2019-04-25T18:17:51.121Z,21.30
2019-04-25T18:20:20.895Z,21.30
2019-04-25T18:22:55.946Z,21.30
2019-04-25T18:26:30.442Z,21.30
2019-04-25T18:29:03.214Z,21.30
2019-04-25T18:31:32.274Z,21.20
2019-04-25T18:34:02.187Z,21.20
2019-04-25T18:36:42.909Z,21.20
2019-04-25T18:39:22.049Z,21.20
2019-04-25T18:42:12.162Z,21.20
2019-04-25T18:44:40.650Z,21.20
2019-04-25T18:47:11.034Z,21.20
2019-04-25T18:49:40.403Z,21.20
2019-04-25T18:52:09.797Z,21.20
2019-04-25T18:54:47.689Z,21.20
2019-04-25T18:57:57.230Z,21.20
2019-04-25T19:00:37.814Z,21.20
2019-04-25T19:03:22.072Z,21.20
2019-04-25T19:05:45.127Z,21.20
2019-04-25T19:08:13.831Z,21.10
2019-04-25T19:10:42.947Z,21.10
2019-04-25T19:13:13.071Z,21.10
2019-04-25T19:15:41.269Z,21.10
2019-04-25T19:18:09.473Z,21.10
2019-04-25T19:20:38.986Z,21.10
2019-04-25T19:23:06.942Z,21.10
2019-04-25T19:25:35.630Z,21.10
2019-04-25T19:28:04.237Z,21.10
2019-04-25T19:30:33.015Z,21.10
2019-04-25T19:33:02.842Z,21.10
2019-04-25T19:35:31.961Z,21.00
2019-04-25T19:38:01.720Z,21.00
2019-04-25T19:40:35.761Z,21.00
2019-04-25T19:43:08.510Z,21.00
2019-04-25T19:45:38.241Z,21.00
2019-04-25T19:48:07.069Z,21.00
2019-04-25T19:50:35.801Z,21.00
2019-04-25T19:53:04.613Z,21.00
2019-04-25T19:55:33.494Z,21.00
2019-04-25T19:58:02.217Z,21.00
2019-04-25T20:03:03.549Z,21.00
2019-04-25T20:05:39.722Z,21.00
2019-04-25T20:08:15.795Z,21.00
2019-04-25T20:10:48.997Z,20.90
2019-04-25T20:13:17.694Z,20.90
2019-04-25T20:15:46.209Z,20.90
2019-04-25T20:18:15.135Z,20.90
2019-04-25T20:20:44.777Z,20.90
2019-04-25T20:23:12.438Z,20.90
2019-04-25T20:25:41.322Z,20.90
2019-04-25T20:28:10.149Z,20.90
2019-04-25T20:30:39.017Z,20.90
2019-04-25T20:33:07.524Z,20.90
2019-04-25T20:35:36.701Z,20.80
2019-04-25T20:38:05.868Z,20.80
2019-04-25T20:40:34.349Z,20.80
2019-04-25T20:43:02.903Z,20.80
2019-04-25T20:45:31.378Z,20.80
2019-04-25T20:48:00.231Z,20.80
2019-04-25T20:50:29.350Z,20.80
2019-04-25T20:52:58.058Z,20.80
2019-04-25T20:55:26.862Z,20.80
